createdAt,value
2022-09-01T00:05:57.281Z,24.40
2022-09-01T00:20:58.771Z,24.40
2022-09-01T00:36:00.276Z,24.30
2022-09-01T00:51:01.754Z,24.30
2022-09-01T01:06:03.232Z,24.20
2022-09-01T01:21:04.726Z,24.20
2022-09-01T01:36:06.218Z,24.10
2022-09-01T01:51:07.739Z,24.10
2022-09-01T02:06:09.229Z,24.10
2022-09-01T02:21:15.093Z,24.10
2022-09-01T02:36:17.982Z,24.00
2022-09-01T02:51:19.487Z,24.00
2022-09-01T03:06:20.976Z,24.00
2022-09-01T03:21:22.472Z,23.90
2022-09-01T03:36:24.040Z,23.90
2022-09-01T03:51:25.521Z,23.80
2022-09-01T04:06:27.006Z,23.80
2022-09-01T04:21:28.484Z,23.80
2022-09-01T04:36:30.168Z,23.70
2022-09-01T04:51:31.654Z,23.80
2022-09-01T05:06:33.133Z,23.80
2022-09-01T05:21:34.613Z,23.80
2022-09-01T05:36:36.103Z,23.70
2022-09-01T05:51:46.459Z,23.70
2022-09-01T06:07:08.515Z,23.70
2022-09-01T06:22:11.643Z,23.80
2022-09-01T06:37:13.121Z,23.80
2022-09-01T06:52:14.605Z,23.90
2022-09-01T07:42:30.322Z,24.20
2022-09-01T07:53:20.578Z,24.40
2022-09-01T08:08:26.370Z,24.50
2022-09-01T08:23:30.105Z,24.70
2022-09-01T08:38:31.594Z,24.90
2022-09-01T08:53:33.119Z,25.00
2022-09-01T09:08:34.601Z,25.20
2022-09-01T09:23:36.083Z,25.30
2022-09-01T09:38:37.565Z,25.50
2022-09-01T09:53:39.059Z,25.70
2022-09-01T10:08:40.542Z,25.80
2022-09-01T10:23:42.021Z,26.00
2022-09-01T10:38:52.705Z,26.30
2022-09-01T10:53:56.100Z,26.60
2022-09-01T11:08:57.605Z,26.90
2022-09-01T11:23:59.718Z,29.50
2022-09-01T11:39:01.218Z,32.40
2022-09-01T11:54:03.278Z,34.50
2022-09-01T12:09:04.769Z,35.30
2022-09-01T12:24:06.253Z,36.90
2022-09-01T12:39:07.753Z,37.90
2022-09-01T12:54:09.541Z,37.60
2022-09-01T13:09:11.180Z,38.00
2022-09-01T13:24:12.657Z,37.30
2022-09-01T13:39:15.448Z,35.50
2022-09-01T13:54:17.097Z,34.20
2022-09-01T14:09:18.587Z,33.20
2022-09-01T14:24:20.087Z,32.40
2022-09-01T14:39:21.570Z,31.70
2022-09-01T14:54:23.057Z,31.20
2022-09-01T15:09:24.580Z,30.70
2022-09-01T15:24:26.065Z,30.40
2022-09-01T15:39:33.236Z,30.10
2022-09-01T15:54:39.770Z,29.80
2022-09-01T16:09:41.251Z,29.50
2022-09-01T16:24:42.732Z,29.20
2022-09-01T16:39:44.221Z,29.00
2022-09-01T16:54:45.705Z,28.80
2022-09-01T17:09:47.186Z,28.60
2022-09-01T17:24:48.683Z,28.40
2022-09-01T17:39:50.167Z,28.30
2022-09-01T17:54:51.641Z,28.10
2022-09-01T18:09:53.131Z,27.90
2022-09-01T18:24:54.618Z,27.70
2022-09-01T18:39:56.119Z,27.40
2022-09-01T18:54:57.695Z,27.30
2022-09-01T19:09:59.182Z,27.10
2022-09-01T19:25:00.669Z,26.90
2022-09-01T19:40:02.206Z,26.70
2022-09-01T19:55:03.699Z,26.50
2022-09-01T20:10:05.181Z,26.30
2022-09-01T20:25:06.671Z,26.20
2022-09-01T20:40:08.206Z,26.00
2022-09-01T20:55:09.706Z,25.90
2022-09-01T21:10:12.368Z,25.80
2022-09-01T21:25:16.306Z,25.70
2022-09-01T21:40:17.831Z,25.60
2022-09-01T21:55:22.711Z,25.50
2022-09-01T22:10:24.463Z,25.40
2022-09-01T22:25:25.955Z,25.30
2022-09-01T22:40:27.500Z,25.20
2022-09-01T22:55:29.031Z,25.10
2022-09-01T23:10:30.597Z,25.10
2022-09-01T23:25:32.085Z,25.00
2022-09-01T23:40:33.604Z,24.90
2022-09-01T23:55:35.128Z,24.90
